sim
Sign-in with your pilot id or email,
or register
Callsign
Passwort

Schedule Details

Flight Number: RYR4010 (1)
Departure: Krakow John Paul II International Airport (EPKK) at 18:20
Arrival: Gothenburg Landvetter Airport (ESGG) at 20:15
Route: Ryanair Passenger Schedule. Enter filed route here before submitting Pirep.

Weather Information
Getting current METAR information for EPKK 251430Z 09009KT 8000 FEW006 OVC008 11/10 Q1013
Getting current METAR information for ESGG 251420Z 22017KT 8000 DZ SCT005 BKN019 11/10 Q0998

Schedule Frequency

Route Map